Аэропорт: Звартноц. Ереван

ICAO: UDYZ

METAR:
2021-07-28 13:30:00
UDYZ 281330Z 01017KT 9999 FEW040CB 29/11 Q1007 R09/010070 TEMPO 03026G36KT
METAR:
2021-07-28 11:05:00
TAF COR UDYZ 281105Z 2812/2912 23006KT 9999 FEW040 TEMPO 2812/2823 VRB26G36KT -TSRA BKN040CB